sensor_id;sensor_type;location;lat;lon;timestamp;P1;durP1;ratioP1;P2;durP2;ratioP2
64959;SDS011;51487;52.266;10.542;2023-04-02T00:03:20;4.57;;;3.20;;
64959;SDS011;51487;52.266;10.542;2023-04-02T00:07:54;4.78;;;2.88;;
64959;SDS011;51487;52.266;10.542;2023-04-02T00:10:30;7.63;;;3.35;;
64959;SDS011;51487;52.266;10.542;2023-04-02T00:15:36;3.78;;;2.85;;
64959;SDS011;51487;52.266;10.542;2023-04-02T00:18:05;6.50;;;2.83;;
64959;SDS011;51487;52.266;10.542;2023-04-02T00:20:32;7.82;;;3.08;;
64959;SDS011;51487;52.266;10.542;2023-04-02T00:23:01;4.93;;;2.67;;
64959;SDS011;51487;52.266;10.542;2023-04-02T00:25:27;7.45;;;3.22;;
64959;SDS011;51487;52.266;10.542;2023-04-02T00:27:55;6.20;;;3.05;;
64959;SDS011;51487;52.266;10.542;2023-04-02T00:30:20;6.10;;;3.50;;
64959;SDS011;51487;52.266;10.542;2023-04-02T00:32:46;5.25;;;2.95;;
64959;SDS011;51487;52.266;10.542;2023-04-02T00:35:24;5.20;;;2.70;;
64959;SDS011;51487;52.266;10.542;2023-04-02T00:37:51;4.80;;;2.97;;
64959;SDS011;51487;52.266;10.542;2023-04-02T00:40:21;4.05;;;2.67;;
64959;SDS011;51487;52.266;10.542;2023-04-02T00:42:53;5.72;;;2.85;;
64959;SDS011;51487;52.266;10.542;2023-04-02T00:45:26;6.03;;;3.00;;
64959;SDS011;51487;52.266;10.542;2023-04-02T00:47:53;4.97;;;3.20;;
64959;SDS011;51487;52.266;10.542;2023-04-02T00:52:58;4.63;;;2.97;;
64959;SDS011;51487;52.266;10.542;2023-04-02T00:55:35;9.30;;;3.05;;
64959;SDS011;51487;52.266;10.542;2023-04-02T00:58:03;5.90;;;2.92;;
64959;SDS011;51487;52.266;10.542;2023-04-02T01:00:34;5.80;;;3.00;;
64959;SDS011;51487;52.266;10.542;2023-04-02T01:04:01;10.20;;;2.72;;
64959;SDS011;51487;52.266;10.542;2023-04-02T01:16:15;6.07;;;2.60;;
64959;SDS011;51487;52.266;10.542;2023-04-02T01:24:03;6.90;;;2.25;;
64959;SDS011;51487;52.266;10.542;2023-04-02T01:26:34;4.03;;;2.67;;
64959;SDS011;51487;52.266;10.542;2023-04-02T01:29:32;5.25;;;2.80;;
64959;SDS011;51487;52.266;10.542;2023-04-02T01:32:04;3.78;;;2.45;;
64959;SDS011;51487;52.266;10.542;2023-04-02T01:34:32;4.72;;;2.47;;
64959;SDS011;51487;52.266;10.542;2023-04-02T01:44:52;5.47;;;2.47;;
64959;SDS011;51487;52.266;10.542;2023-04-02T01:47:19;3.80;;;2.35;;
64959;SDS011;51487;52.266;10.542;2023-04-02T01:49:48;5.00;;;2.55;;
64959;SDS011;51487;52.266;10.542;2023-04-02T01:52:18;4.07;;;2.30;;
64959;SDS011;51487;52.266;10.542;2023-04-02T01:54:57;4.97;;;2.47;;
64959;SDS011;51487;52.266;10.542;2023-04-02T01:57:23;5.93;;;2.53;;
64959;SDS011;51487;52.266;10.542;2023-04-02T01:59:49;2.88;;;1.98;;
64959;SDS011;51487;52.266;10.542;2023-04-02T02:02:15;5.93;;;2.80;;
64959;SDS011;51487;52.266;10.542;2023-04-02T02:04:41;4.80;;;2.38;;
64959;SDS011;51487;52.266;10.542;2023-04-02T02:07:15;3.22;;;2.15;;
64959;SDS011;51487;52.266;10.542;2023-04-02T02:09:42;3.90;;;2.40;;
64959;SDS011;51487;52.266;10.542;2023-04-02T02:12:10;6.32;;;2.47;;
64959;SDS011;51487;52.266;10.542;2023-04-02T02:14:37;3.58;;;2.30;;
64959;SDS011;51487;52.266;10.542;2023-04-02T02:17:13;5.32;;;2.45;;
64959;SDS011;51487;52.266;10.542;2023-04-02T02:19:42;4.97;;;2.58;;
64959;SDS011;51487;52.266;10.542;2023-04-02T02:22:14;6.40;;;2.38;;
64959;SDS011;51487;52.266;10.542;2023-04-02T02:24:51;3.33;;;1.90;;
64959;SDS011;51487;52.266;10.542;2023-04-02T02:30:35;5.35;;;2.30;;
64959;SDS011;51487;52.266;10.542;2023-04-02T02:32:44;4.07;;;2.20;;
64959;SDS011;51487;52.266;10.542;2023-04-02T02:35:16;4.03;;;1.98;;
64959;SDS011;51487;52.266;10.542;2023-04-02T02:37:47;4.03;;;2.28;;
64959;SDS011;51487;52.266;10.542;2023-04-02T02:40:23;2.25;;;2.03;;
64959;SDS011;51487;52.266;10.542;2023-04-02T02:42:56;3.38;;;2.25;;
64959;SDS011;51487;52.266;10.542;2023-04-02T02:45:27;3.85;;;2.25;;
64959;SDS011;51487;52.266;10.542;2023-04-02T02:47:59;6.93;;;2.55;;
64959;SDS011;51487;52.266;10.542;2023-04-02T02:50:26;6.00;;;2.35;;
64959;SDS011;51487;52.266;10.542;2023-04-02T02:52:56;3.10;;;2.03;;
64959;SDS011;51487;52.266;10.542;2023-04-02T02:55:25;3.97;;;2.40;;
64959;SDS011;51487;52.266;10.542;2023-04-02T02:57:55;4.57;;;1.95;;
64959;SDS011;51487;52.266;10.542;2023-04-02T03:02:52;5.07;;;2.10;;
64959;SDS011;51487;52.266;10.542;2023-04-02T03:05:21;3.40;;;2.13;;
64959;SDS011;51487;52.266;10.542;2023-04-02T03:07:49;3.75;;;2.03;;
64959;SDS011;51487;52.266;10.542;2023-04-02T03:12:44;3.83;;;2.00;;
64959;SDS011;51487;52.266;10.542;2023-04-02T03:15:22;3.65;;;1.98;;
64959;SDS011;51487;52.266;10.542;2023-04-02T03:18:16;2.53;;;1.98;;
64959;SDS011;51487;52.266;10.542;2023-04-02T03:21:38;4.85;;;1.98;;
64959;SDS011;51487;52.266;10.542;2023-04-02T03:23:45;2.90;;;2.00;;
64959;SDS011;51487;52.266;10.542;2023-04-02T03:26:17;4.65;;;1.92;;
64959;SDS011;51487;52.266;10.542;2023-04-02T03:28:49;2.97;;;1.75;;
64959;SDS011;51487;52.266;10.542;2023-04-02T03:31:24;4.30;;;2.25;;
64959;SDS011;51487;52.266;10.542;2023-04-02T03:33:54;5.35;;;2.17;;
64959;SDS011;51487;52.266;10.542;2023-04-02T03:39:02;3.35;;;1.77;;
64959;SDS011;51487;52.266;10.542;2023-04-02T03:41:51;3.55;;;1.98;;
64959;SDS011;51487;52.266;10.542;2023-04-02T03:47:15;3.63;;;1.70;;
64959;SDS011;51487;52.266;10.542;2023-04-02T03:49:46;6.03;;;1.98;;
64959;SDS011;51487;52.266;10.542;2023-04-02T03:52:24;3.38;;;1.90;;
64959;SDS011;51487;52.266;10.542;2023-04-02T03:54:54;4.22;;;1.90;;
64959;SDS011;51487;52.266;10.542;2023-04-02T03:57:37;2.42;;;1.70;;
64959;SDS011;51487;52.266;10.542;2023-04-02T04:03:24;2.25;;;1.70;;
64959;SDS011;51487;52.266;10.542;2023-04-02T04:05:58;2.90;;;1.73;;
64959;SDS011;51487;52.266;10.542;2023-04-02T04:08:29;3.92;;;2.30;;
64959;SDS011;51487;52.266;10.542;2023-04-02T04:11:02;3.28;;;2.05;;
64959;SDS011;51487;52.266;10.542;2023-04-02T04:13:35;4.28;;;1.80;;
64959;SDS011;51487;52.266;10.542;2023-04-02T04:16:10;4.72;;;2.15;;
64959;SDS011;51487;52.266;10.542;2023-04-02T04:18:42;2.67;;;1.90;;
64959;SDS011;51487;52.266;10.542;2023-04-02T04:21:27;3.83;;;1.90;;
64959;SDS011;51487;52.266;10.542;2023-04-02T04:24:06;3.00;;;1.65;;
64959;SDS011;51487;52.266;10.542;2023-04-02T04:26:42;3.75;;;1.98;;
64959;SDS011;51487;52.266;10.542;2023-04-02T04:35:02;4.93;;;2.13;;
64959;SDS011;51487;52.266;10.542;2023-04-02T04:40:14;3.55;;;1.75;;
64959;SDS011;51487;52.266;10.542;2023-04-02T04:42:44;6.97;;;2.15;;
64959;SDS011;51487;52.266;10.542;2023-04-02T04:45:31;2.15;;;1.98;;
64959;SDS011;51487;52.266;10.542;2023-04-02T04:50:59;4.63;;;2.17;;
64959;SDS011;51487;52.266;10.542;2023-04-02T04:53:29;2.25;;;1.88;;
64959;SDS011;51487;52.266;10.542;2023-04-02T04:55:55;4.50;;;1.90;;
64959;SDS011;51487;52.266;10.542;2023-04-02T05:01:17;4.32;;;2.30;;
64959;SDS011;51487;52.266;10.542;2023-04-02T05:06:39;2.45;;;1.80;;
64959;SDS011;51487;52.266;10.542;2023-04-02T05:09:35;5.97;;;2.20;;
64959;SDS011;51487;52.266;10.542;2023-04-02T05:12:05;4.25;;;2.03;;
64959;SDS011;51487;52.266;10.542;2023-04-02T05:19:58;3.28;;;1.90;;
64959;SDS011;51487;52.266;10.542;2023-04-02T05:22:40;3.17;;;1.70;;
64959;SDS011;51487;52.266;10.542;2023-04-02T05:30:42;2.63;;;1.60;;
64959;SDS011;51487;52.266;10.542;2023-04-02T05:35:56;3.53;;;2.08;;
64959;SDS011;51487;52.266;10.542;2023-04-02T05:38:28;3.63;;;2.10;;
64959;SDS011;51487;52.266;10.542;2023-04-02T05:41:07;2.45;;;2.00;;
64959;SDS011;51487;52.266;10.542;2023-04-02T05:43:57;4.63;;;1.98;;
64959;SDS011;51487;52.266;10.542;2023-04-02T05:46:32;3.95;;;1.85;;
64959;SDS011;51487;52.266;10.542;2023-04-02T05:49:01;4.78;;;2.05;;
64959;SDS011;51487;52.266;10.542;2023-04-02T05:51:44;4.50;;;1.92;;
64959;SDS011;51487;52.266;10.542;2023-04-02T05:54:23;8.48;;;2.25;;
64959;SDS011;51487;52.266;10.542;2023-04-02T05:56:55;2.08;;;1.65;;
64959;SDS011;51487;52.266;10.542;2023-04-02T05:59:30;4.28;;;1.77;;
64959;SDS011;51487;52.266;10.542;2023-04-02T06:02:14;1.83;;;1.70;;
64959;SDS011;51487;52.266;10.542;2023-04-02T06:04:54;2.78;;;1.95;;
64959;SDS011;51487;52.266;10.542;2023-04-02T06:07:45;4.25;;;1.92;;
64959;SDS011;51487;52.266;10.542;2023-04-02T06:10:18;2.05;;;1.70;;
64959;SDS011;51487;52.266;10.542;2023-04-02T06:12:52;2.03;;;1.73;;
64959;SDS011;51487;52.266;10.542;2023-04-02T06:15:22;7.63;;;2.65;;
64959;SDS011;51487;52.266;10.542;2023-04-02T06:17:57;3.95;;;2.00;;
64959;SDS011;51487;52.266;10.542;2023-04-02T06:20:25;3.85;;;1.92;;
64959;SDS011;51487;52.266;10.542;2023-04-02T06:23:39;2.92;;;1.55;;
64959;SDS011;51487;52.266;10.542;2023-04-02T06:25:45;4.68;;;1.80;;
64959;SDS011;51487;52.266;10.542;2023-04-02T06:28:14;3.38;;;1.70;;
64959;SDS011;51487;52.266;10.542;2023-04-02T06:30:44;2.17;;;1.73;;
64959;SDS011;51487;52.266;10.542;2023-04-02T06:33:10;2.35;;;1.80;;
64959;SDS011;51487;52.266;10.542;2023-04-02T06:35:38;3.42;;;1.75;;
64959;SDS011;51487;52.266;10.542;2023-04-02T06:38:06;2.08;;;1.75;;
64959;SDS011;51487;52.266;10.542;2023-04-02T06:40:40;3.28;;;1.80;;
64959;SDS011;51487;52.266;10.542;2023-04-02T06:43:13;4.05;;;2.13;;
64959;SDS011;51487;52.266;10.542;2023-04-02T06:46:02;2.03;;;1.80;;
64959;SDS011;51487;52.266;10.542;2023-04-02T06:48:33;3.55;;;1.83;;
64959;SDS011;51487;52.266;10.542;2023-04-02T06:51:11;3.15;;;1.77;;
64959;SDS011;51487;52.266;10.542;2023-04-02T06:53:47;5.38;;;1.80;;
64959;SDS011;51487;52.266;10.542;2023-04-02T06:58:55;2.95;;;2.05;;
64959;SDS011;51487;52.266;10.542;2023-04-02T07:01:23;4.10;;;1.90;;
64959;SDS011;51487;52.266;10.542;2023-04-02T07:03:51;2.92;;;1.90;;
64959;SDS011;51487;52.266;10.542;2023-04-02T07:06:18;2.78;;;1.90;;
64959;SDS011;51487;52.266;10.542;2023-04-02T07:08:46;2.38;;;1.58;;
64959;SDS011;51487;52.266;10.542;2023-04-02T07:11:16;4.45;;;1.90;;
64959;SDS011;51487;52.266;10.542;2023-04-02T07:13:43;3.67;;;2.03;;
64959;SDS011;51487;52.266;10.542;2023-04-02T07:16:16;3.85;;;1.83;;
64959;SDS011;51487;52.266;10.542;2023-04-02T07:18:43;5.03;;;1.85;;
64959;SDS011;51487;52.266;10.542;2023-04-02T07:21:09;2.58;;;1.90;;
64959;SDS011;51487;52.266;10.542;2023-04-02T07:23:35;4.03;;;1.80;;
64959;SDS011;51487;52.266;10.542;2023-04-02T07:26:01;3.10;;;2.30;;
64959;SDS011;51487;52.266;10.542;2023-04-02T07:28:28;6.95;;;1.80;;
64959;SDS011;51487;52.266;10.542;2023-04-02T07:30:53;4.20;;;1.90;;
64959;SDS011;51487;52.266;10.542;2023-04-02T07:33:22;3.28;;;2.00;;
64959;SDS011;51487;52.266;10.542;2023-04-02T07:35:49;3.63;;;1.60;;
64959;SDS011;51487;52.266;10.542;2023-04-02T07:38:15;1.60;;;1.50;;
64959;SDS011;51487;52.266;10.542;2023-04-02T07:40:40;4.90;;;1.90;;
64959;SDS011;51487;52.266;10.542;2023-04-02T07:43:06;3.88;;;1.85;;
64959;SDS011;51487;52.266;10.542;2023-04-02T07:45:31;3.60;;;1.80;;
64959;SDS011;51487;52.266;10.542;2023-04-02T07:47:57;6.20;;;2.00;;
64959;SDS011;51487;52.266;10.542;2023-04-02T07:50:28;2.17;;;1.48;;
64959;SDS011;51487;52.266;10.542;2023-04-02T07:52:53;2.55;;;1.80;;
64959;SDS011;51487;52.266;10.542;2023-04-02T07:55:19;3.33;;;1.80;;
64959;SDS011;51487;52.266;10.542;2023-04-02T08:00:18;2.95;;;1.73;;
64959;SDS011;51487;52.266;10.542;2023-04-02T08:02:45;4.13;;;1.88;;
64959;SDS011;51487;52.266;10.542;2023-04-02T08:05:11;3.28;;;1.80;;
64959;SDS011;51487;52.266;10.542;2023-04-02T08:07:36;2.25;;;1.70;;
64959;SDS011;51487;52.266;10.542;2023-04-02T08:10:03;3.13;;;1.85;;
64959;SDS011;51487;52.266;10.542;2023-04-02T08:12:30;5.10;;;1.85;;
64959;SDS011;51487;52.266;10.542;2023-04-02T08:14:56;2.67;;;1.60;;
64959;SDS011;51487;52.266;10.542;2023-04-02T08:17:21;2.75;;;1.70;;
64959;SDS011;51487;52.266;10.542;2023-04-02T08:19:47;4.45;;;1.90;;
64959;SDS011;51487;52.266;10.542;2023-04-02T08:22:12;1.80;;;1.55;;
64959;SDS011;51487;52.266;10.542;2023-04-02T08:24:38;4.72;;;1.70;;
64959;SDS011;51487;52.266;10.542;2023-04-02T08:27:04;3.70;;;1.70;;
64959;SDS011;51487;52.266;10.542;2023-04-02T08:29:29;3.20;;;1.77;;
64959;SDS011;51487;52.266;10.542;2023-04-02T08:31:59;4.03;;;1.67;;
64959;SDS011;51487;52.266;10.542;2023-04-02T08:34:26;2.13;;;1.75;;
64959;SDS011;51487;52.266;10.542;2023-04-02T08:36:55;5.82;;;1.98;;
64959;SDS011;51487;52.266;10.542;2023-04-02T08:39:22;3.10;;;2.03;;
64959;SDS011;51487;52.266;10.542;2023-04-02T08:41:57;8.32;;;3.33;;
64959;SDS011;51487;52.266;10.542;2023-04-02T08:47:16;2.67;;;1.55;;
64959;SDS011;51487;52.266;10.542;2023-04-02T08:49:57;2.00;;;1.67;;
64959;SDS011;51487;52.266;10.542;2023-04-02T08:52:26;3.80;;;1.88;;
64959;SDS011;51487;52.266;10.542;2023-04-02T08:54:55;4.22;;;1.85;;
64959;SDS011;51487;52.266;10.542;2023-04-02T09:00:29;1.73;;;1.60;;
64959;SDS011;51487;52.266;10.542;2023-04-02T09:03:12;4.43;;;1.77;;
64959;SDS011;51487;52.266;10.542;2023-04-02T09:05:42;3.33;;;1.58;;
64959;SDS011;51487;52.266;10.542;2023-04-02T09:08:21;3.75;;;1.90;;
64959;SDS011;51487;52.266;10.542;2023-04-02T09:10:50;2.80;;;1.63;;
64959;SDS011;51487;52.266;10.542;2023-04-02T09:13:24;3.65;;;1.83;;
64959;SDS011;51487;52.266;10.542;2023-04-02T09:15:52;5.72;;;2.10;;
64959;SDS011;51487;52.266;10.542;2023-04-02T09:18:26;3.03;;;1.88;;
64959;SDS011;51487;52.266;10.542;2023-04-02T09:20:54;3.67;;;1.65;;
64959;SDS011;51487;52.266;10.542;2023-04-02T09:23:20;2.45;;;1.63;;
64959;SDS011;51487;52.266;10.542;2023-04-02T09:25:48;3.55;;;1.67;;
64959;SDS011;51487;52.266;10.542;2023-04-02T09:28:16;5.55;;;1.85;;
64959;SDS011;51487;52.266;10.542;2023-04-02T09:33:46;4.28;;;2.25;;
64959;SDS011;51487;52.266;10.542;2023-04-02T09:36:16;1.88;;;1.60;;
64959;SDS011;51487;52.266;10.542;2023-04-02T09:39:09;3.45;;;2.00;;
64959;SDS011;51487;52.266;10.542;2023-04-02T09:41:41;2.30;;;1.60;;
64959;SDS011;51487;52.266;10.542;2023-04-02T09:44:25;2.75;;;1.70;;
64959;SDS011;51487;52.266;10.542;2023-04-02T09:49:25;2.88;;;1.40;;
64959;SDS011;51487;52.266;10.542;2023-04-02T09:52:37;2.38;;;1.50;;
64959;SDS011;51487;52.266;10.542;2023-04-02T09:54:40;3.47;;;1.80;;
64959;SDS011;51487;52.266;10.542;2023-04-02T09:57:16;2.53;;;1.60;;
64959;SDS011;51487;52.266;10.542;2023-04-02T09:59:47;2.22;;;1.50;;
64959;SDS011;51487;52.266;10.542;2023-04-02T10:02:41;4.22;;;1.70;;
64959;SDS011;51487;52.266;10.542;2023-04-02T10:05:15;19.13;;;3.97;;
64959;SDS011;51487;52.266;10.542;2023-04-02T10:07:44;8.05;;;2.63;;
64959;SDS011;51487;52.266;10.542;2023-04-02T10:10:20;8.73;;;2.00;;
64959;SDS011;51487;52.266;10.542;2023-04-02T10:12:53;5.18;;;2.28;;
64959;SDS011;51487;52.266;10.542;2023-04-02T10:15:34;3.60;;;1.50;;
64959;SDS011;51487;52.266;10.542;2023-04-02T10:18:09;2.67;;;1.17;;
64959;SDS011;51487;52.266;10.542;2023-04-02T10:20:55;4.78;;;1.85;;
64959;SDS011;51487;52.266;10.542;2023-04-02T10:23:25;2.75;;;1.40;;
64959;SDS011;51487;52.266;10.542;2023-04-02T10:25:56;1.50;;;1.30;;
64959;SDS011;51487;52.266;10.542;2023-04-02T10:31:09;2.67;;;1.70;;
64959;SDS011;51487;52.266;10.542;2023-04-02T10:33:43;2.28;;;1.50;;
64959;SDS011;51487;52.266;10.542;2023-04-02T10:39:16;2.65;;;1.75;;
64959;SDS011;51487;52.266;10.542;2023-04-02T10:47:23;1.67;;;1.50;;
64959;SDS011;51487;52.266;10.542;2023-04-02T10:49:58;3.63;;;1.55;;
64959;SDS011;51487;52.266;10.542;2023-04-02T10:52:37;2.35;;;1.60;;
64959;SDS011;51487;52.266;10.542;2023-04-02T10:55:15;2.20;;;1.63;;
64959;SDS011;51487;52.266;10.542;2023-04-02T10:57:44;1.90;;;1.40;;
64959;SDS011;51487;52.266;10.542;2023-04-02T11:08:28;3.20;;;1.30;;
64959;SDS011;51487;52.266;10.542;2023-04-02T11:16:39;4.55;;;2.13;;
64959;SDS011;51487;52.266;10.542;2023-04-02T11:27:04;2.35;;;1.60;;
64959;SDS011;51487;52.266;10.542;2023-04-02T11:42:35;1.92;;;1.50;;
64959;SDS011;51487;52.266;10.542;2023-04-02T11:50:28;1.92;;;1.42;;
64959;SDS011;51487;52.266;10.542;2023-04-02T11:53:21;3.50;;;1.60;;
64959;SDS011;51487;52.266;10.542;2023-04-02T11:59:03;3.00;;;1.67;;
64959;SDS011;51487;52.266;10.542;2023-04-02T12:01:33;2.72;;;1.40;;
64959;SDS011;51487;52.266;10.542;2023-04-02T12:04:19;4.15;;;1.55;;
64959;SDS011;51487;52.266;10.542;2023-04-02T12:09:44;2.50;;;2.30;;
64959;SDS011;51487;52.266;10.542;2023-04-02T12:14:48;5.70;;;1.70;;
64959;SDS011;51487;52.266;10.542;2023-04-02T12:20:17;3.13;;;1.55;;
64959;SDS011;51487;52.266;10.542;2023-04-02T12:22:48;2.75;;;1.58;;
64959;SDS011;51487;52.266;10.542;2023-04-02T12:27:47;4.38;;;1.90;;
64959;SDS011;51487;52.266;10.542;2023-04-02T12:30:18;3.25;;;1.40;;
64959;SDS011;51487;52.266;10.542;2023-04-02T12:32:45;4.07;;;1.50;;
64959;SDS011;51487;52.266;10.542;2023-04-02T12:35:28;3.38;;;1.92;;
64959;SDS011;51487;52.266;10.542;2023-04-02T12:37:57;2.60;;;1.60;;
64959;SDS011;51487;52.266;10.542;2023-04-02T12:40:23;2.67;;;1.30;;
64959;SDS011;51487;52.266;10.542;2023-04-02T12:42:50;1.60;;;1.40;;
64959;SDS011;51487;52.266;10.542;2023-04-02T12:45:22;2.88;;;1.40;;
64959;SDS011;51487;52.266;10.542;2023-04-02T12:47:49;1.83;;;1.20;;
64959;SDS011;51487;52.266;10.542;2023-04-02T12:50:15;1.95;;;1.20;;
64959;SDS011;51487;52.266;10.542;2023-04-02T12:52:44;2.17;;;1.48;;
64959;SDS011;51487;52.266;10.542;2023-04-02T12:55:21;1.75;;;1.33;;
64959;SDS011;51487;52.266;10.542;2023-04-02T12:57:53;2.90;;;1.40;;
64959;SDS011;51487;52.266;10.542;2023-04-02T13:03:30;3.78;;;1.20;;
64959;SDS011;51487;52.266;10.542;2023-04-02T13:05:40;3.08;;;1.73;;
64959;SDS011;51487;52.266;10.542;2023-04-02T13:08:30;2.58;;;1.58;;
64959;SDS011;51487;52.266;10.542;2023-04-02T13:11:05;3.13;;;1.30;;
64959;SDS011;51487;52.266;10.542;2023-04-02T13:16:02;2.40;;;1.23;;
64959;SDS011;51487;52.266;10.542;2023-04-02T13:18:30;2.88;;;1.35;;
64959;SDS011;51487;52.266;10.542;2023-04-02T13:21:01;1.55;;;1.23;;
64959;SDS011;51487;52.266;10.542;2023-04-02T13:23:31;1.70;;;1.23;;
64959;SDS011;51487;52.266;10.542;2023-04-02T13:28:38;2.88;;;1.20;;
64959;SDS011;51487;52.266;10.542;2023-04-02T13:31:04;3.97;;;1.30;;
64959;SDS011;51487;52.266;10.542;2023-04-02T13:33:30;1.85;;;1.20;;
64959;SDS011;51487;52.266;10.542;2023-04-02T13:35:55;4.45;;;1.40;;
64959;SDS011;51487;52.266;10.542;2023-04-02T13:38:21;2.75;;;1.30;;
64959;SDS011;51487;52.266;10.542;2023-04-02T13:40:46;2.30;;;1.50;;
64959;SDS011;51487;52.266;10.542;2023-04-02T13:43:16;3.38;;;1.40;;
64959;SDS011;51487;52.266;10.542;2023-04-02T13:45:45;3.55;;;1.50;;
64959;SDS011;51487;52.266;10.542;2023-04-02T13:48:14;2.17;;;1.17;;
64959;SDS011;51487;52.266;10.542;2023-04-02T13:50:40;2.08;;;1.40;;
64959;SDS011;51487;52.266;10.542;2023-04-02T13:53:07;1.85;;;1.35;;
64959;SDS011;51487;52.266;10.542;2023-04-02T13:55:38;2.83;;;1.40;;
64959;SDS011;51487;52.266;10.542;2023-04-02T13:58:06;3.45;;;1.60;;
64959;SDS011;51487;52.266;10.542;2023-04-02T14:00:31;2.58;;;1.40;;
64959;SDS011;51487;52.266;10.542;2023-04-02T14:03:01;2.85;;;1.40;;
64959;SDS011;51487;52.266;10.542;2023-04-02T14:17:06;3.65;;;1.50;;
64959;SDS011;51487;52.266;10.542;2023-04-02T14:38:53;1.95;;;1.35;;
64959;SDS011;51487;52.266;10.542;2023-04-02T14:44:03;4.35;;;1.50;;
64959;SDS011;51487;52.266;10.542;2023-04-02T14:46:31;1.88;;;1.30;;
64959;SDS011;51487;52.266;10.542;2023-04-02T14:49:01;2.42;;;1.25;;
64959;SDS011;51487;52.266;10.542;2023-04-02T15:04:59;4.03;;;1.65;;
64959;SDS011;51487;52.266;10.542;2023-04-02T15:07:32;3.80;;;1.40;;
64959;SDS011;51487;52.266;10.542;2023-04-02T15:10:07;2.97;;;1.40;;
64959;SDS011;51487;52.266;10.542;2023-04-02T15:12:44;3.10;;;1.60;;
64959;SDS011;51487;52.266;10.542;2023-04-02T15:15:18;3.38;;;1.42;;
64959;SDS011;51487;52.266;10.542;2023-04-02T15:17:52;3.17;;;1.77;;
64959;SDS011;51487;52.266;10.542;2023-04-02T15:20:18;3.03;;;1.40;;
64959;SDS011;51487;52.266;10.542;2023-04-02T15:26:22;2.85;;;1.70;;
64959;SDS011;51487;52.266;10.542;2023-04-02T15:28:33;2.22;;;1.50;;
64959;SDS011;51487;52.266;10.542;2023-04-02T15:31:04;2.92;;;1.50;;
64959;SDS011;51487;52.266;10.542;2023-04-02T15:38:57;4.18;;;1.30;;
64959;SDS011;51487;52.266;10.542;2023-04-02T15:41:33;3.42;;;1.50;;
64959;SDS011;51487;52.266;10.542;2023-04-02T15:44:08;4.32;;;1.60;;
64959;SDS011;51487;52.266;10.542;2023-04-02T15:49:45;2.25;;;1.35;;
64959;SDS011;51487;52.266;10.542;2023-04-02T15:52:37;3.70;;;1.38;;
64959;SDS011;51487;52.266;10.542;2023-04-02T16:03:48;3.83;;;1.80;;
64959;SDS011;51487;52.266;10.542;2023-04-02T16:06:27;3.10;;;1.52;;
64959;SDS011;51487;52.266;10.542;2023-04-02T16:11:57;3.85;;;1.70;;
64959;SDS011;51487;52.266;10.542;2023-04-02T16:14:32;5.38;;;1.80;;
64959;SDS011;51487;52.266;10.542;2023-04-02T16:17:04;2.55;;;1.50;;
64959;SDS011;51487;52.266;10.542;2023-04-02T16:19:37;4.43;;;1.98;;
64959;SDS011;51487;52.266;10.542;2023-04-02T16:22:10;2.42;;;1.60;;
64959;SDS011;51487;52.266;10.542;2023-04-02T16:24:41;2.33;;;1.55;;
64959;SDS011;51487;52.266;10.542;2023-04-02T16:34:55;2.53;;;1.38;;
64959;SDS011;51487;52.266;10.542;2023-04-02T16:37:45;2.20;;;1.40;;
64959;SDS011;51487;52.266;10.542;2023-04-02T16:48:41;3.92;;;1.80;;
64959;SDS011;51487;52.266;10.542;2023-04-02T17:01:52;3.05;;;1.80;;
64959;SDS011;51487;52.266;10.542;2023-04-02T17:09:53;3.38;;;1.63;;
64959;SDS011;51487;52.266;10.542;2023-04-02T17:12:44;4.50;;;1.60;;
64959;SDS011;51487;52.266;10.542;2023-04-02T17:15:16;4.43;;;1.80;;
64959;SDS011;51487;52.266;10.542;2023-04-02T17:17:46;4.53;;;1.70;;
64959;SDS011;51487;52.266;10.542;2023-04-02T17:20:16;3.42;;;1.70;;
64959;SDS011;51487;52.266;10.542;2023-04-02T17:22:44;2.63;;;1.60;;
64959;SDS011;51487;52.266;10.542;2023-04-02T17:25:19;7.00;;;2.15;;
64959;SDS011;51487;52.266;10.542;2023-04-02T17:27:54;4.80;;;1.63;;
64959;SDS011;51487;52.266;10.542;2023-04-02T17:33:12;5.50;;;1.90;;
64959;SDS011;51487;52.266;10.542;2023-04-02T17:38:17;3.33;;;1.60;;
64959;SDS011;51487;52.266;10.542;2023-04-02T17:53:36;4.22;;;2.03;;
64959;SDS011;51487;52.266;10.542;2023-04-02T17:56:17;5.30;;;3.03;;
64959;SDS011;51487;52.266;10.542;2023-04-02T18:06:49;4.97;;;1.80;;
64959;SDS011;51487;52.266;10.542;2023-04-02T18:09:38;7.20;;;2.03;;
64959;SDS011;51487;52.266;10.542;2023-04-02T18:12:12;2.85;;;1.70;;
64959;SDS011;51487;52.266;10.542;2023-04-02T18:31:34;4.57;;;1.88;;
64959;SDS011;51487;52.266;10.542;2023-04-02T18:34:19;3.33;;;1.95;;
64959;SDS011;51487;52.266;10.542;2023-04-02T18:37:12;4.10;;;1.92;;
64959;SDS011;51487;52.266;10.542;2023-04-02T18:52:11;3.05;;;1.92;;
64959;SDS011;51487;52.266;10.542;2023-04-02T18:54:40;4.68;;;2.58;;
64959;SDS011;51487;52.266;10.542;2023-04-02T18:57:16;3.88;;;2.00;;
64959;SDS011;51487;52.266;10.542;2023-04-02T18:59:50;6.82;;;2.20;;
64959;SDS011;51487;52.266;10.542;2023-04-02T19:05:05;4.38;;;2.53;;
64959;SDS011;51487;52.266;10.542;2023-04-02T19:07:58;4.10;;;2.20;;
64959;SDS011;51487;52.266;10.542;2023-04-02T19:10:33;3.78;;;2.17;;
64959;SDS011;51487;52.266;10.542;2023-04-02T19:13:01;2.03;;;1.70;;
64959;SDS011;51487;52.266;10.542;2023-04-02T19:15:42;4.13;;;2.17;;
64959;SDS011;51487;52.266;10.542;2023-04-02T19:20:45;3.58;;;1.95;;
64959;SDS011;51487;52.266;10.542;2023-04-02T19:23:25;2.88;;;1.95;;
64959;SDS011;51487;52.266;10.542;2023-04-02T19:26:05;2.60;;;1.65;;
64959;SDS011;51487;52.266;10.542;2023-04-02T19:31:20;2.03;;;1.70;;
64959;SDS011;51487;52.266;10.542;2023-04-02T19:36:40;3.60;;;1.80;;
64959;SDS011;51487;52.266;10.542;2023-04-02T19:42:14;2.42;;;1.50;;
64959;SDS011;51487;52.266;10.542;2023-04-02T19:44:49;2.90;;;1.80;;
64959;SDS011;51487;52.266;10.542;2023-04-02T19:47:17;3.53;;;1.80;;
64959;SDS011;51487;52.266;10.542;2023-04-02T19:49:44;4.90;;;1.90;;
64959;SDS011;51487;52.266;10.542;2023-04-02T19:52:10;4.40;;;2.00;;
64959;SDS011;51487;52.266;10.542;2023-04-02T19:54:35;3.30;;;1.98;;
64959;SDS011;51487;52.266;10.542;2023-04-02T19:57:01;3.65;;;1.90;;
64959;SDS011;51487;52.266;10.542;2023-04-02T19:59:26;4.60;;;2.00;;
64959;SDS011;51487;52.266;10.542;2023-04-02T20:01:51;4.75;;;2.10;;
64959;SDS011;51487;52.266;10.542;2023-04-02T20:04:17;3.65;;;1.77;;
64959;SDS011;51487;52.266;10.542;2023-04-02T20:06:42;5.93;;;1.80;;
64959;SDS011;51487;52.266;10.542;2023-04-02T20:09:08;4.70;;;2.15;;
64959;SDS011;51487;52.266;10.542;2023-04-02T20:11:33;4.45;;;1.92;;
64959;SDS011;51487;52.266;10.542;2023-04-02T20:14:00;5.90;;;2.30;;
64959;SDS011;51487;52.266;10.542;2023-04-02T20:16:26;3.08;;;2.00;;
64959;SDS011;51487;52.266;10.542;2023-04-02T20:18:51;4.95;;;2.00;;
64959;SDS011;51487;52.266;10.542;2023-04-02T20:21:16;4.22;;;2.20;;
64959;SDS011;51487;52.266;10.542;2023-04-02T20:23:42;3.78;;;2.03;;
64959;SDS011;51487;52.266;10.542;2023-04-02T20:26:07;4.50;;;2.33;;
64959;SDS011;51487;52.266;10.542;2023-04-02T20:28:33;6.20;;;2.22;;
64959;SDS011;51487;52.266;10.542;2023-04-02T20:31:08;2.78;;;1.70;;
64959;SDS011;51487;52.266;10.542;2023-04-02T20:33:35;4.28;;;2.20;;
64959;SDS011;51487;52.266;10.542;2023-04-02T20:36:03;3.35;;;1.88;;
64959;SDS011;51487;52.266;10.542;2023-04-02T20:38:29;4.00;;;1.88;;
64959;SDS011;51487;52.266;10.542;2023-04-02T20:40:55;2.95;;;2.03;;
64959;SDS011;51487;52.266;10.542;2023-04-02T20:43:21;4.03;;;1.98;;